Madison, WI

12:20 PM CST on February 28, 2015 (GMT -0600)
Atmospheric, Oceanic and Space Sciences Building | Change Station
CLOSE
Current Station
Personal Weather Station
Location: Madison, WI
Elevation: 896 ft
Nearby Weather Stations

Elev 896 ft 43.07 °N, 89.41 °W | Updated 17 seconds ago

Partly Cloudy
Partly Cloudy
10.7 °F
Feels Like -3 °F
N
10.8
Wind Variable Wind from SSW

Today
High -- | Low -- °F
--% Chance of Precip.
Yesterday
High -- | Low -- °F
Precip. -- in
6:35 AM 5:45 PM
Waxing Gibbous, 79% visible
Pressure 30.70 in
Visibility 10.0 miles
Clouds Mostly Cloudy 29000 ft
Windchill -3 °F
Dew Point -4 °F
Humidity 49%
Rainfall 0.00 in
Snow Depth Not available.
UV 3 out of 12
Pollen .50 out of 12
Air Quality Not available.
Flu Activity Not available.
METAR KMSN 281753Z 20009KT 10SM BKN290 M11/M21 A3063 RMK AO2 SLP394 4/006 933010 T11111206 11111 21228 58011

More Conditions Fewer Conditions

Pressure 30.70 in
Visibility 10.0 miles
Clouds Mostly Cloudy 29000 ft
Windchill -3 °F
Dew Point -4 °F
Humidity 49%
Rainfall 0.00 in
Snow Depth Not available.
UV 3 out of 12
Pollen .50 out of 12
Air Quality Not available.
Flu Activity Not available.
METAR KMSN 281753Z 20009KT 10SM BKN290 M11/M21 A3063 RMK AO2 SLP394 4/006 933010 T11111206 11111 21228 58011

More Conditions Fewer Conditions

10-Day Weather Forecast

Almanac

Astronomy

Feb. 28, 2015 Rise Set
Actual Time
Civil Twilight
Nautical Twilight
Astronomical Twilight
Moon
Length of Visible Light
Length of Day
Tomorrow will be .
, % of the Moon is Illuminated

Today's Extremes

State Highs State Lows

Community

WunderPhotos

Upload Photos

1,801,106 photos uploaded!

WunderBlogs® & News

Nearby

Air Quality

  Air Quality AQ Index Pollutant
Not available.

Snow Depth

Station Depth Elevation

Earthquake Activity

City Distance Mag. Time & Date
Minimum magnitude displayed is 2.5.

Coastal Water Temperatures

Place Temperature

Nearby Weather Stations